Time;durP1;ratioP1;P1;durP2;ratioP2;P2;SDS_P1;SDS_P2;PMS_P1;PMS_P2;Temp;Humidity;BMP_temperature;BMP_pressure;BME280_temperature;BME280_humidity;BME280_pressure;Samples;Min_cycle;Max_cycle;Signal;HPM_P1;HPM_P2
2024/02/18 00:02:11;;;;;;;3.72;0.95;;;9.10;99.90;;;;;;4964205;28;20033;-72
2024/02/18 00:04:38;;;;;;;7.90;1.30;;;9.10;99.90;;;;;;4964291;28;20503;-72
2024/02/18 00:07:04;;;;;;;11.50;1.65;;;9.10;99.90;;;;;;4964425;28;20030;-72
2024/02/18 00:09:31;;;;;;;4.65;1.13;;;9.10;99.90;;;;;;4963858;28;20026;-72
2024/02/18 00:11:58;;;;;;;8.48;1.45;;;9.10;99.90;;;;;;4964316;28;20035;-71
2024/02/18 00:14:24;;;;;;;11.25;1.50;;;9.10;99.90;;;;;;4964430;28;20041;-72
2024/02/18 00:16:50;;;;;;;4.95;1.42;;;9.10;99.90;;;;;;4964050;28;20053;-71
2024/02/18 00:19:17;;;;;;;9.73;1.23;;;9.00;99.90;;;;;;4964551;28;20380;-72
2024/02/18 00:21:43;;;;;;;4.28;0.80;;;9.00;99.90;;;;;;4964110;28;20046;-72
2024/02/18 00:24:08;;;;;;;4.57;1.35;;;9.00;99.90;;;;;;4964051;28;20045;-72
2024/02/18 00:26:36;;;;;;;4.15;1.55;;;9.00;99.90;;;;;;4964224;28;20031;-72
2024/02/18 00:29:03;;;;;;;5.75;1.02;;;9.00;99.90;;;;;;4964241;28;20023;-71
2024/02/18 00:31:29;;;;;;;4.80;1.02;;;9.00;99.90;;;;;;4964016;28;20039;-72
2024/02/18 00:33:55;;;;;;;4.80;1.27;;;9.00;99.90;;;;;;4964151;28;20070;-72
2024/02/18 00:36:21;;;;;;;4.47;1.60;;;9.00;99.90;;;;;;4964270;28;20106;-72
2024/02/18 00:38:47;;;;;;;5.95;1.35;;;9.00;99.90;;;;;;4964210;28;20510;-72
2024/02/18 00:41:13;;;;;;;9.00;1.65;;;9.00;99.90;;;;;;4963640;28;20027;-73
2024/02/18 00:43:39;;;;;;;4.45;0.95;;;9.10;99.90;;;;;;4967562;28;20660;-72
2024/02/18 00:46:05;;;;;;;7.18;1.50;;;9.10;99.90;;;;;;4968182;28;20058;-72
2024/02/18 00:48:31;;;;;;;9.48;2.08;;;9.10;99.90;;;;;;4968416;28;20030;-72
2024/02/18 00:50:57;;;;;;;5.68;1.45;;;9.10;99.90;;;;;;4967807;28;20475;-72
2024/02/18 00:53:23;;;;;;;8.90;1.40;;;9.10;99.90;;;;;;4967746;28;20042;-72
2024/02/18 00:55:48;;;;;;;6.13;0.98;;;9.10;99.90;;;;;;4967758;28;20027;-73
2024/02/18 00:58:14;;;;;;;6.00;1.00;;;9.00;99.90;;;;;;4967335;28;20030;-73
2024/02/18 01:00:40;;;;;;;4.35;1.13;;;9.00;99.90;;;;;;4966946;28;20101;-72
2024/02/18 01:03:07;;;;;;;7.22;1.20;;;9.10;99.90;;;;;;4966065;28;20027;-72
2024/02/18 01:05:33;;;;;;;5.07;1.08;;;9.00;99.90;;;;;;4967663;28;20595;-73
2024/02/18 01:07:59;;;;;;;5.57;0.85;;;8.90;99.90;;;;;;4966517;28;20042;-72
2024/02/18 01:10:25;;;;;;;6.28;1.10;;;8.90;99.90;;;;;;4965834;28;20391;-73
2024/02/18 01:12:51;;;;;;;7.30;1.45;;;8.80;99.90;;;;;;4967562;28;20039;-72
2024/02/18 01:15:17;;;;;;;8.32;1.00;;;8.80;99.90;;;;;;4965298;28;20042;-73
2024/02/18 01:17:43;;;;;;;6.97;1.38;;;8.70;99.90;;;;;;4967148;28;20038;-72
2024/02/18 01:20:09;;;;;;;9.23;1.58;;;8.70;99.90;;;;;;4967472;28;20133;-72
2024/02/18 01:22:35;;;;;;;5.82;1.85;;;8.70;99.90;;;;;;4966166;28;20082;-73
2024/02/18 01:25:02;;;;;;;6.47;1.55;;;8.50;99.90;;;;;;4967134;28;20042;-71
2024/02/18 01:27:28;;;;;;;8.77;1.88;;;8.50;99.90;;;;;;4967257;28;20625;-73
2024/02/18 01:29:54;;;;;;;5.57;1.60;;;8.40;99.90;;;;;;4967272;28;20034;-73
2024/02/18 01:32:20;;;;;;;7.72;1.42;;;8.30;99.90;;;;;;4966937;28;20054;-73
2024/02/18 01:34:46;;;;;;;6.63;1.70;;;8.20;99.90;;;;;;4963668;28;20038;-71
2024/02/18 01:37:12;;;;;;;5.72;1.30;;;8.10;99.90;;;;;;4965191;28;20045;-73
2024/02/18 01:39:38;;;;;;;8.65;1.80;;;8.00;99.90;;;;;;4966313;28;20034;-72
2024/02/18 01:42:04;;;;;;;8.18;1.63;;;7.90;99.90;;;;;;4964190;28;20029;-72
2024/02/18 01:44:32;;;;;;;5.78;1.58;;;7.80;99.90;;;;;;4965188;28;20054;-72
2024/02/18 01:46:57;;;;;;;4.55;1.40;;;7.70;99.90;;;;;;4966696;28;20027;-72
2024/02/18 01:49:23;;;;;;;5.20;1.08;;;7.60;99.90;;;;;;4964900;28;20376;-72
2024/02/18 01:51:50;;;;;;;7.65;1.23;;;7.50;99.90;;;;;;4965887;28;20487;-72
2024/02/18 01:54:16;;;;;;;5.50;1.40;;;7.40;99.90;;;;;;4965475;28;20027;-72
2024/02/18 01:56:43;;;;;;;8.80;1.98;;;7.30;99.90;;;;;;4966377;28;20137;-72
2024/02/18 01:59:09;;;;;;;8.80;1.20;;;7.30;99.90;;;;;;4966672;28;20054;-72
2024/02/18 02:01:35;;;;;;;9.93;1.40;;;7.10;99.90;;;;;;4964423;28;20632;-72
2024/02/18 02:04:02;;;;;;;6.22;1.60;;;7.10;99.90;;;;;;4966313;28;20146;-72
2024/02/18 02:06:31;;;;;;;6.88;1.88;;;7.00;99.90;;;;;;4966858;28;20443;-72
2024/02/18 02:08:57;;;;;;;6.30;1.35;;;6.90;99.90;;;;;;4965746;28;20097;-72
2024/02/18 02:11:23;;;;;;;11.07;2.03;;;6.90;99.90;;;;;;4966274;28;20054;-72
2024/02/18 02:13:50;;;;;;;9.65;2.03;;;6.80;99.90;;;;;;4964722;28;20177;-72
2024/02/18 02:16:17;;;;;;;6.85;1.30;;;6.70;99.90;;;;;;4966386;28;20030;-72
2024/02/18 02:18:43;;;;;;;3.22;1.20;;;6.70;99.90;;;;;;4963003;28;20046;-72
2024/02/18 02:21:09;;;;;;;2.47;1.20;;;6.60;99.90;;;;;;4964154;28;20082;-72
2024/02/18 02:23:35;;;;;;;6.88;1.42;;;6.50;99.90;;;;;;4963255;28;20035;-72
2024/02/18 02:26:03;;;;;;;11.50;1.55;;;6.50;99.90;;;;;;4966192;28;20498;-71
2024/02/18 02:28:32;;;;;;;14.05;1.63;;;6.50;99.90;;;;;;4965495;28;20042;-71
2024/02/18 02:30:59;;;;;;;4.65;1.30;;;6.50;99.90;;;;;;4964519;28;20034;-71
2024/02/18 02:33:25;;;;;;;6.70;1.50;;;6.50;99.90;;;;;;4965798;28;20110;-71
2024/02/18 02:35:51;;;;;;;6.43;1.40;;;6.40;99.90;;;;;;4966130;28;20041;-71
2024/02/18 02:38:17;;;;;;;9.02;1.58;;;6.30;99.90;;;;;;4964383;28;20502;-72
2024/02/18 02:40:43;;;;;;;5.05;1.55;;;6.20;99.90;;;;;;4965142;28;20517;-72
2024/02/18 02:43:10;;;;;;;8.23;1.27;;;6.20;99.90;;;;;;4966090;28;20394;-72
2024/02/18 02:45:37;;;;;;;5.57;1.20;;;6.30;99.90;;;;;;4965963;28;20029;-72
2024/02/18 02:48:03;;;;;;;8.60;1.67;;;6.20;99.90;;;;;;4966098;28;20077;-71
2024/02/18 02:50:29;;;;;;;7.90;1.98;;;6.20;99.90;;;;;;4965807;28;20111;-72
2024/02/18 02:52:55;;;;;;;9.70;1.85;;;6.20;99.90;;;;;;4965712;28;20061;-72
2024/02/18 02:55:21;;;;;;;7.90;2.05;;;6.20;99.90;;;;;;4965209;28;20181;-72
2024/02/18 02:57:48;;;;;;;7.65;1.77;;;6.10;99.90;;;;;;4964534;28;20038;-72
2024/02/18 03:00:14;;;;;;;10.05;1.23;;;6.10;99.90;;;;;;4965889;28;20086;-71
2024/02/18 03:02:41;;;;;;;3.20;1.13;;;6.10;99.90;;;;;;4965138;28;20030;-72
2024/02/18 03:05:10;;;;;;;3.13;1.10;;;6.00;99.90;;;;;;4963106;28;20038;-72
2024/02/18 03:07:36;;;;;;;10.73;1.52;;;6.00;99.90;;;;;;4965694;28;20422;-72
2024/02/18 03:10:03;;;;;;;7.57;1.58;;;6.00;99.90;;;;;;4965355;28;20495;-71
2024/02/18 03:12:29;;;;;;;10.20;1.77;;;5.90;99.90;;;;;;4965533;28;20398;-71
2024/02/18 03:14:55;;;;;;;6.53;1.40;;;5.90;99.90;;;;;;4965210;28;20038;-71
2024/02/18 03:17:21;;;;;;;7.60;1.50;;;5.90;99.90;;;;;;4968906;28;20031;-70
2024/02/18 03:19:48;;;;;;;12.18;2.03;;;5.90;99.90;;;;;;4964987;28;20106;-71
2024/02/18 03:22:23;;;;;;;3.50;1.20;;;5.90;99.90;;;;;;4965082;28;20031;-71
2024/02/18 03:24:52;;;;;;;6.93;1.25;;;5.80;99.90;;;;;;4964929;28;20034;-71
2024/02/18 03:27:18;;;;;;;2.10;1.00;;;5.80;99.90;;;;;;4964928;28;20802;-72
2024/02/18 03:29:44;;;;;;;9.27;1.52;;;5.70;99.90;;;;;;4965537;28;20031;-71
2024/02/18 03:32:10;;;;;;;5.47;1.20;;;5.70;99.90;;;;;;4964864;28;20133;-72
2024/02/18 03:34:37;;;;;;;9.10;1.25;;;5.70;99.90;;;;;;4964865;28;20491;-72
2024/02/18 03:37:02;;;;;;;10.07;1.80;;;5.60;99.90;;;;;;4964552;28;20479;-72
2024/02/18 03:39:28;;;;;;;6.00;1.58;;;5.70;99.90;;;;;;4964578;28;20034;-72
2024/02/18 03:41:54;;;;;;;6.63;2.05;;;5.60;99.90;;;;;;4964402;28;20215;-72
2024/02/18 03:44:20;;;;;;;6.97;1.75;;;5.60;99.90;;;;;;4962954;28;20034;-71
2024/02/18 03:46:46;;;;;;;5.03;1.83;;;5.50;99.90;;;;;;4964858;28;21930;-72
2024/02/18 03:49:12;;;;;;;7.28;1.60;;;5.50;99.90;;;;;;4964968;28;20030;-72
2024/02/18 03:51:38;;;;;;;13.52;2.28;;;5.50;99.90;;;;;;4964371;28;20031;-72
2024/02/18 03:54:03;;;;;;;6.07;1.83;;;5.50;99.90;;;;;;4964510;28;20105;-71
2024/02/18 03:56:34;;;;;;;10.43;2.42;;;5.50;99.90;;;;;;4964371;28;20050;-71
2024/02/18 03:59:00;;;;;;;7.57;2.15;;;5.50;99.90;;;;;;4964336;28;20788;-71
2024/02/18 04:01:25;;;;;;;9.65;2.17;;;5.50;99.90;;;;;;4964170;28;20030;-71
2024/02/18 04:03:51;;;;;;;11.45;2.03;;;5.50;99.90;;;;;;4962868;28;20062;-71
2024/02/18 04:06:17;;;;;;;6.45;1.88;;;5.40;99.90;;;;;;4964363;28;20060;-71
2024/02/18 04:08:43;;;;;;;7.47;2.08;;;5.40;99.90;;;;;;4964399;28;20026;-71
2024/02/18 04:11:09;;;;;;;8.80;2.63;;;5.40;99.90;;;;;;4964236;28;20900;-72
2024/02/18 04:13:36;;;;;;;11.18;2.45;;;5.40;99.90;;;;;;4964516;28;20558;-71
2024/02/18 04:16:03;;;;;;;10.88;2.55;;;5.40;99.90;;;;;;4964173;28;20066;-71
2024/02/18 04:18:29;;;;;;;15.00;2.75;;;5.40;99.90;;;;;;4964042;28;20026;-72
2024/02/18 04:20:54;;;;;;;11.55;2.15;;;5.40;99.90;;;;;;4964300;28;20035;-71
2024/02/18 04:23:20;;;;;;;8.10;3.08;;;5.30;99.90;;;;;;4963816;28;20043;-71
2024/02/18 04:25:46;;;;;;;8.82;2.20;;;5.30;99.90;;;;;;4963619;28;20066;-72
2024/02/18 04:28:12;;;;;;;3.50;1.77;;;5.30;99.90;;;;;;4964386;28;20038;-72
2024/02/18 04:30:38;;;;;;;4.50;2.10;;;5.30;99.90;;;;;;4962838;28;20031;-72
2024/02/18 04:33:04;;;;;;;10.68;2.47;;;5.30;99.90;;;;;;4963983;28;20034;-71
2024/02/18 04:35:30;;;;;;;11.50;2.88;;;5.20;99.90;;;;;;4963458;28;20037;-71
2024/02/18 04:37:56;;;;;;;6.35;2.20;;;5.20;99.90;;;;;;4964649;28;20081;-71
2024/02/18 04:40:21;;;;;;;9.68;2.90;;;5.20;99.90;;;;;;4964427;28;20031;-71
2024/02/18 04:42:47;;;;;;;5.75;2.42;;;5.10;99.90;;;;;;4963728;28;20041;-71
2024/02/18 04:45:13;;;;;;;7.75;2.88;;;5.10;99.90;;;;;;4962544;28;20045;-71
2024/02/18 04:47:39;;;;;;;8.48;2.28;;;5.10;99.90;;;;;;4963723;28;20058;-71
2024/02/18 04:50:05;;;;;;;4.47;2.28;;;5.10;99.90;;;;;;4964215;28;20034;-71
2024/02/18 04:52:31;;;;;;;13.77;3.05;;;5.10;99.90;;;;;;4964014;28;20031;-72
2024/02/18 04:54:57;;;;;;;5.55;2.30;;;5.20;99.90;;;;;;4964360;28;20039;-72
2024/02/18 04:57:23;;;;;;;9.90;2.55;;;5.20;99.90;;;;;;4964284;28;20165;-71
2024/02/18 04:59:49;;;;;;;7.75;1.75;;;5.20;99.90;;;;;;4963899;28;20035;-71
2024/02/18 05:02:15;;;;;;;8.25;2.40;;;5.20;99.90;;;;;;4963635;28;20688;-71
2024/02/18 05:04:41;;;;;;;12.80;2.50;;;5.10;99.90;;;;;;4963412;28;20054;-72
2024/02/18 05:07:07;;;;;;;3.92;2.35;;;5.20;99.90;;;;;;4963805;28;20066;-71
2024/02/18 05:09:32;;;;;;;5.07;2.13;;;5.20;99.90;;;;;;4963278;28;20051;-72
2024/02/18 05:11:58;;;;;;;6.22;2.30;;;5.20;99.90;;;;;;4978461;28;20041;-72
2024/02/18 05:14:24;;;;;;;6.88;2.40;;;5.20;99.90;;;;;;4963570;28;20031;-72
2024/02/18 05:16:50;;;;;;;9.65;2.40;;;5.20;99.90;;;;;;4974582;28;20039;-72
2024/02/18 05:19:16;;;;;;;9.52;3.42;;;5.20;99.90;;;;;;4963277;28;20038;-72
2024/02/18 05:21:42;;;;;;;11.40;4.63;;;5.20;99.90;;;;;;4963603;28;20023;-71
2024/02/18 05:24:10;;;;;;;9.98;3.42;;;5.20;99.90;;;;;;4962297;28;20559;-72
2024/02/18 05:26:36;;;;;;;8.23;3.17;;;5.20;99.90;;;;;;4963879;28;20533;-71
2024/02/18 05:29:02;;;;;;;12.52;3.90;;;5.20;99.90;;;;;;4965993;28;20069;-71
2024/02/18 05:31:28;;;;;;;12.35;3.08;;;5.20;99.90;;;;;;4966909;28;20105;-71
2024/02/18 05:33:54;;;;;;;13.50;4.65;;;5.20;99.90;;;;;;4949722;28;20049;-71
2024/02/18 05:36:20;;;;;;;14.48;5.50;;;5.20;99.90;;;;;;4967172;28;20031;-72
2024/02/18 05:38:47;;;;;;;21.02;9.18;;;5.20;99.90;;;;;;4966713;28;20035;-72
2024/02/18 05:41:13;;;;;;;22.00;7.93;;;5.20;99.90;;;;;;4966824;28;20033;-72
2024/02/18 05:43:38;;;;;;;15.13;4.97;;;5.20;99.90;;;;;;4966915;28;20034;-72
2024/02/18 05:46:07;;;;;;;7.60;3.42;;;5.20;99.90;;;;;;4966424;28;20549;-71
2024/02/18 05:48:34;;;;;;;6.90;3.60;;;5.20;99.90;;;;;;4966473;28;20045;-71
2024/02/18 05:50:59;;;;;;;10.13;2.55;;;5.20;99.90;;;;;;4966340;28;20113;-72
2024/02/18 05:53:25;;;;;;;12.13;3.75;;;5.20;99.90;;;;;;4967163;28;20034;-71
2024/02/18 05:55:51;;;;;;;11.77;2.53;;;5.20;99.90;;;;;;4966768;28;20201;-72
2024/02/18 05:58:17;;;;;;;4.78;2.08;;;5.30;99.90;;;;;;4966661;28;20030;-71
2024/02/18 06:00:43;;;;;;;5.88;2.05;;;5.30;99.90;;;;;;4966837;28;20034;-72
2024/02/18 06:03:09;;;;;;;5.90;2.80;;;5.30;99.90;;;;;;4966577;28;20035;-72
2024/02/18 06:05:35;;;;;;;4.57;2.00;;;5.40;99.90;;;;;;4966243;28;20578;-72
2024/02/18 06:08:01;;;;;;;7.18;2.10;;;5.30;99.90;;;;;;4966273;28;20034;-71
2024/02/18 06:10:28;;;;;;;5.82;1.65;;;5.30;99.90;;;;;;4965562;28;20042;-71
2024/02/18 06:12:54;;;;;;;11.85;2.10;;;5.30;99.90;;;;;;4963247;28;20054;-72
2024/02/18 06:15:20;;;;;;;9.80;2.40;;;5.40;99.90;;;;;;4965971;28;20123;-71
2024/02/18 06:17:46;;;;;;;8.60;2.55;;;5.40;99.90;;;;;;4966045;28;20039;-71
2024/02/18 06:20:13;;;;;;;10.25;3.20;;;5.40;99.90;;;;;;4966336;28;20118;-72
2024/02/18 06:22:39;;;;;;;13.63;4.35;;;5.50;99.90;;;;;;4964348;28;20030;-72
2024/02/18 06:25:06;;;;;;;10.48;3.45;;;5.40;99.90;;;;;;4966009;28;20061;-72
2024/02/18 06:27:32;;;;;;;10.05;2.40;;;5.40;99.90;;;;;;4965854;28;20053;-72
2024/02/18 06:29:58;;;;;;;8.18;2.22;;;5.40;99.90;;;;;;4965575;28;20034;-72
2024/02/18 06:32:25;;;;;;;7.07;2.30;;;5.40;99.90;;;;;;4965586;28;20061;-71
2024/02/18 06:34:51;;;;;;;8.35;2.40;;;5.50;99.90;;;;;;4965445;28;20039;-71
2024/02/18 06:37:17;;;;;;;9.10;1.75;;;5.50;99.90;;;;;;4965965;28;20054;-72
2024/02/18 06:39:55;;;;;;;9.90;2.15;;;5.50;99.90;;;;;;4964944;28;20065;-72
2024/02/18 06:42:21;;;;;;;9.38;1.75;;;5.60;99.90;;;;;;4964440;28;20038;-72
2024/02/18 06:44:47;;;;;;;11.23;2.30;;;5.60;99.90;;;;;;4965380;28;20062;-72
2024/02/18 06:47:13;;;;;;;7.93;2.00;;;5.60;99.90;;;;;;4965905;28;20059;-71
2024/02/18 06:49:39;;;;;;;7.20;2.28;;;5.70;99.90;;;;;;4965533;28;20038;-71
2024/02/18 06:52:05;;;;;;;5.63;1.75;;;5.80;99.90;;;;;;4964836;28;20075;-71
2024/02/18 06:54:31;;;;;;;8.93;2.08;;;5.90;99.90;;;;;;4965284;28;20054;-71
2024/02/18 06:56:57;;;;;;;7.05;2.22;;;6.00;99.90;;;;;;4965531;28;20070;-71
2024/02/18 06:59:23;;;;;;;8.55;2.35;;;6.10;99.90;;;;;;4965280;28;20058;-70
2024/02/18 07:01:49;;;;;;;12.27;2.08;;;6.20;99.90;;;;;;4965626;28;20073;-71
2024/02/18 07:04:15;;;;;;;9.65;2.47;;;6.30;99.90;;;;;;4965428;28;20766;-70
2024/02/18 07:06:41;;;;;;;8.93;2.40;;;6.40;99.90;;;;;;4965403;28;20117;-72
2024/02/18 07:09:06;;;;;;;8.23;1.60;;;6.50;99.90;;;;;;4965346;28;20041;-71
2024/02/18 07:11:33;;;;;;;3.30;1.50;;;6.60;99.90;;;;;;4963890;28;20035;-72
2024/02/18 07:13:59;;;;;;;7.07;1.85;;;6.70;99.90;;;;;;4960687;28;20138;-72
2024/02/18 07:16:25;;;;;;;9.98;2.83;;;6.70;99.90;;;;;;4963664;28;20062;-70
2024/02/18 07:18:51;;;;;;;10.05;2.53;;;6.70;99.90;;;;;;4965150;28;20039;-70
2024/02/18 07:21:17;;;;;;;9.00;2.05;;;6.80;99.90;;;;;;4962917;28;20443;-70
2024/02/18 07:23:47;;;;;;;8.75;1.98;;;6.80;99.90;;;;;;4964695;28;20066;-70
2024/02/18 07:26:13;;;;;;;9.55;2.65;;;6.90;99.90;;;;;;4963430;28;20035;-70
2024/02/18 07:28:40;;;;;;;9.32;1.90;;;7.00;99.90;;;;;;4962768;28;20030;-70
2024/02/18 07:31:06;;;;;;;7.50;2.25;;;7.00;99.90;;;;;;4964340;28;20027;-69
2024/02/18 07:33:32;;;;;;;7.70;2.22;;;7.10;99.90;;;;;;4964676;28;20101;-68
2024/02/18 07:35:58;;;;;;;9.18;2.03;;;7.20;99.90;;;;;;4964503;28;20026;-68
2024/02/18 07:38:26;;;;;;;10.35;2.28;;;7.10;99.90;;;;;;4939637;28;20483;-64
2024/02/18 07:40:53;;;;;;;7.47;3.08;;;7.20;99.90;;;;;;4964037;28;20074;-64
2024/02/18 07:43:19;;;;;;;10.13;2.50;;;7.20;99.90;;;;;;4963943;28;20038;-64
2024/02/18 07:45:46;;;;;;;7.32;2.42;;;7.30;99.90;;;;;;4964216;28;20023;-64
2024/02/18 07:48:13;;;;;;;13.00;2.55;;;7.30;99.90;;;;;;4964516;28;20030;-64
2024/02/18 07:50:39;;;;;;;6.35;1.98;;;7.30;99.90;;;;;;4961992;28;20034;-64
2024/02/18 07:53:05;;;;;;;9.18;1.80;;;7.30;99.90;;;;;;4963165;28;20497;-64
2024/02/18 07:55:31;;;;;;;5.75;2.10;;;7.30;99.90;;;;;;4963665;28;20143;-64
2024/02/18 07:57:58;;;;;;;8.30;2.60;;;7.30;99.90;;;;;;4953726;28;20062;-64
2024/02/18 08:00:24;;;;;;;5.85;2.03;;;7.40;99.90;;;;;;4962010;28;20113;-64
2024/02/18 08:02:50;;;;;;;20.98;2.40;;;7.30;99.90;;;;;;4963601;28;20119;-65
2024/02/18 08:05:16;;;;;;;5.60;1.95;;;7.40;99.90;;;;;;4964313;28;20060;-64
2024/02/18 08:07:43;;;;;;;6.88;2.28;;;7.40;99.90;;;;;;4964203;28;20395;-64
2024/02/18 08:10:09;;;;;;;7.05;2.33;;;7.30;99.90;;;;;;4963348;28;20035;-64
2024/02/18 08:12:34;;;;;;;8.15;2.28;;;7.40;99.90;;;;;;4964082;28;20550;-64
2024/02/18 08:15:01;;;;;;;8.57;2.25;;;7.40;99.90;;;;;;4963642;28;20034;-64
2024/02/18 08:17:27;;;;;;;5.03;2.10;;;7.40;99.90;;;;;;4962888;28;20039;-64
2024/02/18 08:19:53;;;;;;;7.07;2.00;;;7.40;99.90;;;;;;4962336;28;20446;-64
2024/02/18 08:22:18;;;;;;;7.82;2.25;;;7.50;99.90;;;;;;4963552;28;20486;-64
2024/02/18 08:24:45;;;;;;;6.75;2.17;;;7.60;99.90;;;;;;4962067;28;20038;-64
2024/02/18 08:27:10;;;;;;;4.43;1.75;;;7.60;99.90;;;;;;4963926;28;20038;-65
2024/02/18 08:29:38;;;;;;;5.97;2.47;;;7.40;99.90;;;;;;4963788;28;20027;-65
2024/02/18 08:32:06;;;;;;;10.75;1.85;;;7.30;99.90;;;;;;4963303;28;20038;-65
2024/02/18 08:34:32;;;;;;;9.52;1.83;;;7.30;99.90;;;;;;4963289;28;20035;-65
2024/02/18 08:36:58;;;;;;;6.90;2.45;;;7.30;99.90;;;;;;4964122;28;20577;-65
2024/02/18 08:39:24;;;;;;;7.88;2.20;;;7.30;99.90;;;;;;4963144;28;20828;-64
2024/02/18 08:41:52;;;;;;;6.00;1.65;;;7.30;99.90;;;;;;4963411;28;20042;-65
2024/02/18 08:44:18;;;;;;;6.45;2.33;;;7.30;99.90;;;;;;4963530;28;20035;-65
2024/02/18 08:46:47;;;;;;;7.05;2.55;;;7.40;99.90;;;;;;4963258;28;20030;-65
2024/02/18 08:49:13;;;;;;;7.25;2.50;;;7.40;99.90;;;;;;4963350;28;20038;-65
2024/02/18 08:51:39;;;;;;;8.68;2.47;;;7.50;99.90;;;;;;4963124;28;20920;-65
2024/02/18 08:54:06;;;;;;;5.30;2.17;;;7.50;99.90;;;;;;4963525;28;20117;-65
2024/02/18 08:56:32;;;;;;;6.00;2.33;;;7.50;99.90;;;;;;4963680;28;20038;-65
2024/02/18 08:58:58;;;;;;;11.63;2.25;;;7.60;99.90;;;;;;4963526;28;20441;-65
2024/02/18 09:01:24;;;;;;;14.65;4.60;;;7.60;99.90;;;;;;4963025;28;20119;-65
2024/02/18 09:03:50;;;;;;;5.82;2.33;;;7.70;99.90;;;;;;4965969;28;20042;-65
2024/02/18 09:06:16;;;;;;;10.80;3.28;;;7.80;99.90;;;;;;4967540;28;20513;-65
2024/02/18 09:08:42;;;;;;;9.93;2.65;;;7.90;99.90;;;;;;4966594;28;20027;-65
2024/02/18 09:11:08;;;;;;;9.55;2.67;;;8.10;99.90;;;;;;4966873;28;20440;-65
2024/02/18 09:13:34;;;;;;;9.50;3.03;;;8.30;99.90;;;;;;4967057;28;20034;-65
2024/02/18 09:16:00;;;;;;;8.50;2.83;;;8.30;99.90;;;;;;4966594;28;20556;-65
2024/02/18 09:18:26;;;;;;;11.43;2.47;;;8.40;99.90;;;;;;4965120;28;20101;-65
2024/02/18 09:20:52;;;;;;;10.98;2.45;;;8.40;99.90;;;;;;4966186;28;20022;-65
2024/02/18 09:23:18;;;;;;;11.93;2.63;;;8.40;99.90;;;;;;4966982;28;20604;-65
2024/02/18 09:25:44;;;;;;;6.38;2.38;;;8.50;99.90;;;;;;4966911;28;20041;-64
2024/02/18 09:28:10;;;;;;;12.05;3.35;;;8.60;99.90;;;;;;4966153;28;20038;-65
2024/02/18 09:30:36;;;;;;;6.38;2.80;;;8.70;99.90;;;;;;4966449;28;20034;-64
2024/02/18 09:33:05;;;;;;;6.72;2.40;;;8.60;99.90;;;;;;4966498;28;20027;-64
2024/02/18 09:35:31;;;;;;;9.00;2.83;;;8.60;99.90;;;;;;4965199;28;20030;-64
2024/02/18 09:37:57;;;;;;;8.75;2.67;;;8.70;99.90;;;;;;4964922;28;20030;-64
2024/02/18 09:40:23;;;;;;;8.57;2.65;;;8.70;99.90;;;;;;4966314;28;20110;-64
2024/02/18 09:42:51;;;;;;;16.52;2.55;;;8.80;99.90;;;;;;4965030;28;20081;-64
2024/02/18 09:45:24;;;;;;;4.15;1.90;;;8.80;99.90;;;;;;4963594;28;20023;-65
2024/02/18 09:47:50;;;;;;;5.38;2.20;;;8.70;99.90;;;;;;4963394;28;20055;-65
2024/02/18 09:50:16;;;;;;;7.72;2.10;;;8.80;99.90;;;;;;4964015;28;20037;-64
2024/02/18 09:52:42;;;;;;;7.30;2.42;;;8.90;99.90;;;;;;4962816;28;20774;-65
2024/02/18 09:55:10;;;;;;;5.50;2.15;;;9.10;99.90;;;;;;4963839;28;20039;-65
2024/02/18 09:57:38;;;;;;;5.50;1.60;;;9.30;99.90;;;;;;4964869;28;20035;-65
2024/02/18 10:00:08;;;;;;;5.85;2.28;;;9.50;99.90;;;;;;4964844;28;20514;-65
2024/02/18 10:02:34;;;;;;;8.57;2.50;;;9.70;99.90;;;;;;4963413;28;20076;-65
2024/02/18 10:05:00;;;;;;;5.10;1.90;;;9.80;99.90;;;;;;4966245;28;20587;-65
2024/02/18 10:07:27;;;;;;;4.85;2.08;;;9.90;99.90;;;;;;4964750;28;20039;-65
2024/02/18 10:09:52;;;;;;;7.32;1.92;;;10.00;99.90;;;;;;4966199;28;20039;-65
2024/02/18 10:12:20;;;;;;;8.70;2.17;;;10.00;99.90;;;;;;4966224;28;20023;-65
2024/02/18 10:15:01;;;;;;;6.68;1.63;;;9.70;99.90;;;;;;4965707;28;20066;-65
2024/02/18 10:17:28;;;;;;;6.15;1.73;;;9.40;99.90;;;;;;4966326;28;20054;-65
2024/02/18 10:19:54;;;;;;;4.45;1.88;;;9.40;99.90;;;;;;4965883;28;20114;-65
2024/02/18 10:22:26;;;;;;;7.03;1.73;;;9.60;99.90;;;;;;4965340;28;20062;-65
2024/02/18 10:24:53;;;;;;;4.47;2.13;;;10.00;99.90;;;;;;4965618;28;20066;-65
2024/02/18 10:27:19;;;;;;;6.07;2.45;;;10.40;99.90;;;;;;4965511;28;20043;-65
2024/02/18 10:29:47;;;;;;;7.53;2.45;;;10.90;99.90;;;;;;4965873;28;20094;-65
2024/02/18 10:32:18;;;;;;;3.60;2.30;;;11.40;99.90;;;;;;4965602;28;20022;-65
2024/02/18 10:34:44;;;;;;;8.93;2.40;;;11.60;99.90;;;;;;4979336;28;20031;-65
2024/02/18 10:37:29;;;;;;;4.78;1.98;;;11.60;99.90;;;;;;4964520;28;20081;-65
2024/02/18 10:40:01;;;;;;;6.53;2.28;;;12.00;99.90;;;;;;4962450;28;20455;-65
2024/02/18 10:42:29;;;;;;;6.95;2.42;;;11.80;99.90;;;;;;4963934;28;20142;-67
2024/02/18 10:44:57;;;;;;;10.27;3.45;;;11.50;99.90;;;;;;4965059;28;20645;-66
2024/02/18 10:47:24;;;;;;;5.38;2.78;;;11.50;99.90;;;;;;4965837;28;20030;-65
2024/02/18 10:50:04;;;;;;;7.10;3.33;;;11.40;99.90;;;;;;4965332;28;20037;-65
2024/02/18 10:52:44;;;;;;;10.20;3.13;;;11.30;99.90;;;;;;4964595;28;20653;-66
2024/02/18 10:55:20;;;;;;;8.65;3.80;;;11.20;99.90;;;;;;4965452;28;20043;-66
2024/02/18 10:58:04;;;;;;;7.80;3.95;;;11.00;99.90;;;;;;4965284;28;20058;-65
2024/02/18 11:00:31;;;;;;;8.23;4.10;;;11.20;99.90;;;;;;4963664;28;20109;-65
2024/02/18 11:03:13;;;;;;;8.98;3.63;;;11.40;99.90;;;;;;4962054;28;20030;-66
2024/02/18 11:05:39;;;;;;;10.20;3.78;;;11.90;99.90;;;;;;4964720;28;20592;-66
2024/02/18 11:08:07;;;;;;;7.82;3.78;;;12.00;99.90;;;;;;4965376;28;20089;-66
2024/02/18 11:10:35;;;;;;;11.63;3.92;;;12.20;99.90;;;;;;4965380;28;20042;-66
2024/02/18 11:13:02;;;;;;;8.27;3.38;;;12.40;99.90;;;;;;4965028;28;20495;-65
2024/02/18 11:15:29;;;;;;;10.77;3.88;;;12.50;99.90;;;;;;4965527;28;20031;-66
2024/02/18 11:17:56;;;;;;;12.13;3.88;;;12.70;99.90;;;;;;4963768;28;20030;-66
2024/02/18 11:20:23;;;;;;;8.40;3.85;;;12.70;99.90;;;;;;4953456;28;20053;-69
2024/02/18 11:22:50;;;;;;;7.13;3.90;;;12.50;99.90;;;;;;4973393;28;20034;-68
2024/02/18 11:25:20;;;;;;;9.20;3.90;;;12.10;99.90;;;;;;4965378;28;20053;-68
2024/02/18 11:27:45;;;;;;;7.30;3.95;;;11.80;99.90;;;;;;4965003;28;20023;-68
2024/02/18 11:30:12;;;;;;;8.75;4.10;;;11.50;99.90;;;;;;4965295;28;20031;-69
2024/02/18 11:32:38;;;;;;;8.85;4.38;;;11.30;99.90;;;;;;4965353;28;20029;-69
2024/02/18 11:35:08;;;;;;;6.75;3.92;;;11.20;99.90;;;;;;4964699;28;20039;-69
2024/02/18 11:37:34;;;;;;;8.68;3.85;;;11.30;99.90;;;;;;4964083;28;20050;-69
2024/02/18 11:40:33;;;;;;;5.88;3.67;;;11.40;99.90;;;;;;4964870;28;20047;-68
2024/02/18 11:42:59;;;;;;;7.40;4.45;;;11.50;99.90;;;;;;4952337;28;20042;-69
2024/02/18 11:45:25;;;;;;;9.18;3.83;;;11.50;99.90;;;;;;4963226;28;20051;-70
2024/02/18 11:47:55;;;;;;;9.35;3.88;;;11.60;99.90;;;;;;4965212;28;20027;-70
2024/02/18 11:50:24;;;;;;;9.18;3.92;;;11.70;99.90;;;;;;4963171;28;20133;-70
2024/02/18 11:52:51;;;;;;;10.43;3.80;;;11.80;99.90;;;;;;4964145;28;20042;-68
2024/02/18 11:55:22;;;;;;;12.13;3.83;;;11.80;99.90;;;;;;4964634;28;20097;-68
2024/02/18 11:57:48;;;;;;;9.02;3.70;;;11.80;99.90;;;;;;4963056;28;20031;-70
2024/02/18 12:00:18;;;;;;;7.82;4.30;;;11.90;99.90;;;;;;4964347;28;20118;-68
2024/02/18 12:02:54;;;;;;;10.18;4.20;;;11.90;99.90;;;;;;4964701;28;20094;-68
2024/02/18 12:05:25;;;;;;;6.72;3.58;;;12.00;99.90;;;;;;4964365;28;20510;-68
2024/02/18 12:07:54;;;;;;;7.63;3.78;;;12.10;99.90;;;;;;4964259;28;20488;-68
2024/02/18 12:10:20;;;;;;;9.75;4.22;;;12.20;99.90;;;;;;4964396;28;20133;-68
2024/02/18 12:12:46;;;;;;;6.93;3.80;;;12.30;99.90;;;;;;4964374;28;20027;-68
2024/02/18 12:15:23;;;;;;;10.93;4.90;;;12.50;99.90;;;;;;4962848;28;20090;-68
2024/02/18 12:17:53;;;;;;;9.27;4.60;;;12.60;99.90;;;;;;4964314;28;20050;-68
2024/02/18 12:20:20;;;;;;;8.73;4.57;;;12.60;99.90;;;;;;4964088;28;20035;-68
2024/02/18 12:22:49;;;;;;;6.85;4.40;;;12.50;99.90;;;;;;4964008;28;20042;-71
2024/02/18 12:25:15;;;;;;;10.27;4.60;;;12.40;99.90;;;;;;4964104;28;20041;-69
2024/02/18 12:27:42;;;;;;;6.40;3.97;;;12.30;99.90;;;;;;4964142;28;20042;-68
2024/02/18 12:30:08;;;;;;;12.10;4.70;;;12.40;99.90;;;;;;4964025;28;20011;-68
2024/02/18 12:32:34;;;;;;;8.95;4.50;;;12.50;99.90;;;;;;4963351;28;20034;-68
2024/02/18 12:35:03;;;;;;;8.55;5.28;;;12.40;99.90;;;;;;4964641;28;20035;-68
2024/02/18 12:37:30;;;;;;;11.18;4.88;;;12.30;99.90;;;;;;4963866;28;20041;-69
2024/02/18 12:39:56;;;;;;;8.93;4.93;;;12.30;99.90;;;;;;4952677;28;20100;-69
2024/02/18 12:42:24;;;;;;;7.25;4.30;;;12.30;99.90;;;;;;4967923;28;20036;-69
2024/02/18 12:44:50;;;;;;;10.77;4.88;;;12.40;99.90;;;;;;4949918;28;20046;-69
2024/02/18 12:47:16;;;;;;;11.40;5.70;;;12.60;99.90;;;;;;4968629;28;20675;-69
2024/02/18 12:49:43;;;;;;;11.85;5.25;;;12.60;99.90;;;;;;4967595;28;20478;-69
2024/02/18 12:52:13;;;;;;;11.13;4.80;;;12.60;99.90;;;;;;4967869;28;20019;-69